sensor_id;sensor_type;location;lat;lon;timestamp;P1;durP1;ratioP1;P2;durP2;ratioP2
16906;SDS011;8570;52.380;4.654;2024-02-23T00:00:09;21.00;;;2.90;;
16906;SDS011;8570;52.380;4.654;2024-02-23T00:05:12;21.80;;;3.13;;
16906;SDS011;8570;52.380;4.654;2024-02-23T00:10:16;14.83;;;3.20;;
16906;SDS011;8570;52.380;4.654;2024-02-23T00:15:18;17.57;;;3.00;;
16906;SDS011;8570;52.380;4.654;2024-02-23T00:20:20;13.00;;;2.87;;
16906;SDS011;8570;52.380;4.654;2024-02-23T00:25:24;15.67;;;2.30;;
16906;SDS011;8570;52.380;4.654;2024-02-23T00:30:25;15.50;;;2.47;;
16906;SDS011;8570;52.380;4.654;2024-02-23T00:35:28;12.83;;;2.87;;
16906;SDS011;8570;52.380;4.654;2024-02-23T00:40:31;13.23;;;2.40;;
16906;SDS011;8570;52.380;4.654;2024-02-23T00:45:33;13.33;;;2.77;;
16906;SDS011;8570;52.380;4.654;2024-02-23T00:50:35;16.67;;;3.50;;
16906;SDS011;8570;52.380;4.654;2024-02-23T00:55:38;12.00;;;2.73;;
16906;SDS011;8570;52.380;4.654;2024-02-23T01:00:40;20.53;;;3.50;;
16906;SDS011;8570;52.380;4.654;2024-02-23T01:05:42;15.57;;;3.07;;
16906;SDS011;8570;52.380;4.654;2024-02-23T01:10:45;8.03;;;2.67;;
16906;SDS011;8570;52.380;4.654;2024-02-23T01:15:47;13.90;;;2.67;;
16906;SDS011;8570;52.380;4.654;2024-02-23T01:20:49;16.87;;;2.93;;
16906;SDS011;8570;52.380;4.654;2024-02-23T01:25:52;14.20;;;2.90;;
16906;SDS011;8570;52.380;4.654;2024-02-23T01:30:54;19.97;;;3.10;;
16906;SDS011;8570;52.380;4.654;2024-02-23T01:35:56;13.07;;;2.33;;
16906;SDS011;8570;52.380;4.654;2024-02-23T01:41:00;12.00;;;2.67;;
16906;SDS011;8570;52.380;4.654;2024-02-23T01:46:02;17.77;;;4.27;;
16906;SDS011;8570;52.380;4.654;2024-02-23T01:51:06;21.23;;;3.17;;
16906;SDS011;8570;52.380;4.654;2024-02-23T01:56:09;13.80;;;2.57;;
16906;SDS011;8570;52.380;4.654;2024-02-23T02:01:13;14.83;;;2.83;;
16906;SDS011;8570;52.380;4.654;2024-02-23T02:06:15;17.00;;;2.70;;
16906;SDS011;8570;52.380;4.654;2024-02-23T02:11:18;13.80;;;3.40;;
16906;SDS011;8570;52.380;4.654;2024-02-23T02:16:20;17.53;;;2.80;;
16906;SDS011;8570;52.380;4.654;2024-02-23T02:21:22;13.03;;;3.00;;
16906;SDS011;8570;52.380;4.654;2024-02-23T02:26:26;8.80;;;2.60;;
16906;SDS011;8570;52.380;4.654;2024-02-23T02:31:28;17.10;;;2.90;;
16906;SDS011;8570;52.380;4.654;2024-02-23T02:36:30;17.17;;;3.47;;
16906;SDS011;8570;52.380;4.654;2024-02-23T02:41:33;8.67;;;2.33;;
16906;SDS011;8570;52.380;4.654;2024-02-23T02:46:35;12.17;;;2.20;;
16906;SDS011;8570;52.380;4.654;2024-02-23T02:51:39;18.40;;;3.50;;
16906;SDS011;8570;52.380;4.654;2024-02-23T02:56:43;10.43;;;2.40;;
16906;SDS011;8570;52.380;4.654;2024-02-23T03:01:46;13.33;;;2.67;;
16906;SDS011;8570;52.380;4.654;2024-02-23T03:06:48;13.13;;;2.43;;
16906;SDS011;8570;52.380;4.654;2024-02-23T03:11:51;9.83;;;2.73;;
16906;SDS011;8570;52.380;4.654;2024-02-23T03:16:53;10.90;;;2.87;;
16906;SDS011;8570;52.380;4.654;2024-02-23T03:21:55;14.57;;;2.60;;
16906;SDS011;8570;52.380;4.654;2024-02-23T03:26:58;14.23;;;2.70;;
16906;SDS011;8570;52.380;4.654;2024-02-23T03:32:00;10.00;;;2.00;;
16906;SDS011;8570;52.380;4.654;2024-02-23T03:37:02;16.03;;;2.53;;
16906;SDS011;8570;52.380;4.654;2024-02-23T03:42:06;10.07;;;2.40;;
16906;SDS011;8570;52.380;4.654;2024-02-23T03:47:08;11.97;;;2.20;;
16906;SDS011;8570;52.380;4.654;2024-02-23T03:52:10;13.33;;;2.97;;
16906;SDS011;8570;52.380;4.654;2024-02-23T03:57:13;16.13;;;2.93;;
16906;SDS011;8570;52.380;4.654;2024-02-23T04:02:15;12.20;;;2.27;;
16906;SDS011;8570;52.380;4.654;2024-02-23T04:07:17;10.23;;;1.83;;
16906;SDS011;8570;52.380;4.654;2024-02-23T04:12:20;13.73;;;3.07;;
16906;SDS011;8570;52.380;4.654;2024-02-23T04:17:22;13.93;;;2.27;;
16906;SDS011;8570;52.380;4.654;2024-02-23T04:22:24;9.03;;;1.90;;
16906;SDS011;8570;52.380;4.654;2024-02-23T04:27:27;10.60;;;1.93;;
16906;SDS011;8570;52.380;4.654;2024-02-23T04:32:29;16.47;;;2.60;;
16906;SDS011;8570;52.380;4.654;2024-02-23T04:37:31;10.27;;;1.83;;
16906;SDS011;8570;52.380;4.654;2024-02-23T04:42:34;11.43;;;2.00;;
16906;SDS011;8570;52.380;4.654;2024-02-23T04:47:36;10.13;;;2.40;;
16906;SDS011;8570;52.380;4.654;2024-02-23T04:52:38;8.53;;;2.07;;
16906;SDS011;8570;52.380;4.654;2024-02-23T04:57:41;10.37;;;2.50;;
16906;SDS011;8570;52.380;4.654;2024-02-23T05:02:43;15.97;;;2.67;;
16906;SDS011;8570;52.380;4.654;2024-02-23T05:07:45;14.57;;;2.57;;
16906;SDS011;8570;52.380;4.654;2024-02-23T05:12:48;8.60;;;2.40;;
16906;SDS011;8570;52.380;4.654;2024-02-23T05:17:52;11.77;;;2.30;;
16906;SDS011;8570;52.380;4.654;2024-02-23T05:22:53;7.33;;;1.53;;
16906;SDS011;8570;52.380;4.654;2024-02-23T05:27:57;4.37;;;1.43;;
16906;SDS011;8570;52.380;4.654;2024-02-23T05:32:58;5.50;;;1.30;;
16906;SDS011;8570;52.380;4.654;2024-02-23T05:38:03;5.33;;;1.20;;
16906;SDS011;8570;52.380;4.654;2024-02-23T05:43:07;5.60;;;1.13;;
16906;SDS011;8570;52.380;4.654;2024-02-23T05:48:09;8.13;;;1.07;;
16906;SDS011;8570;52.380;4.654;2024-02-23T05:53:11;4.00;;;1.13;;
16906;SDS011;8570;52.380;4.654;2024-02-23T05:58:14;3.50;;;1.17;;
16906;SDS011;8570;52.380;4.654;2024-02-23T06:03:17;3.23;;;1.00;;
16906;SDS011;8570;52.380;4.654;2024-02-23T06:08:19;2.40;;;0.93;;
16906;SDS011;8570;52.380;4.654;2024-02-23T06:13:22;5.67;;;1.20;;
16906;SDS011;8570;52.380;4.654;2024-02-23T06:18:24;4.63;;;1.30;;
16906;SDS011;8570;52.380;4.654;2024-02-23T06:23:25;7.43;;;1.77;;
16906;SDS011;8570;52.380;4.654;2024-02-23T06:28:29;7.03;;;2.03;;
16906;SDS011;8570;52.380;4.654;2024-02-23T06:33:31;5.93;;;1.90;;
16906;SDS011;8570;52.380;4.654;2024-02-23T06:38:34;12.43;;;2.47;;
16906;SDS011;8570;52.380;4.654;2024-02-23T06:43:37;6.80;;;2.20;;
16906;SDS011;8570;52.380;4.654;2024-02-23T06:48:39;7.50;;;3.00;;
16906;SDS011;8570;52.380;4.654;2024-02-23T06:53:41;8.13;;;2.40;;
16906;SDS011;8570;52.380;4.654;2024-02-23T06:58:44;7.17;;;2.80;;
16906;SDS011;8570;52.380;4.654;2024-02-23T07:03:46;6.80;;;2.90;;
16906;SDS011;8570;52.380;4.654;2024-02-23T07:08:50;7.43;;;3.10;;
16906;SDS011;8570;52.380;4.654;2024-02-23T07:13:56;8.90;;;3.10;;
16906;SDS011;8570;52.380;4.654;2024-02-23T07:18:58;7.70;;;3.00;;
16906;SDS011;8570;52.380;4.654;2024-02-23T07:24:00;7.40;;;2.80;;
16906;SDS011;8570;52.380;4.654;2024-02-23T07:29:03;4.33;;;2.43;;
16906;SDS011;8570;52.380;4.654;2024-02-23T07:34:05;5.50;;;2.83;;
16906;SDS011;8570;52.380;4.654;2024-02-23T07:39:08;7.33;;;4.17;;
16906;SDS011;8570;52.380;4.654;2024-02-23T07:44:13;8.20;;;4.00;;
16906;SDS011;8570;52.380;4.654;2024-02-23T07:49:15;15.33;;;4.20;;
16906;SDS011;8570;52.380;4.654;2024-02-23T07:54:17;6.43;;;3.33;;
16906;SDS011;8570;52.380;4.654;2024-02-23T07:59:20;6.90;;;3.83;;
16906;SDS011;8570;52.380;4.654;2024-02-23T08:04:22;10.37;;;3.60;;
16906;SDS011;8570;52.380;4.654;2024-02-23T08:09:24;6.37;;;3.57;;
16906;SDS011;8570;52.380;4.654;2024-02-23T08:14:27;9.87;;;3.90;;
16906;SDS011;8570;52.380;4.654;2024-02-23T08:19:29;7.63;;;3.17;;
16906;SDS011;8570;52.380;4.654;2024-02-23T08:24:31;5.70;;;2.90;;
16906;SDS011;8570;52.380;4.654;2024-02-23T08:29:37;7.77;;;3.20;;
16906;SDS011;8570;52.380;4.654;2024-02-23T08:34:39;9.63;;;2.97;;
16906;SDS011;8570;52.380;4.654;2024-02-23T08:39:41;6.83;;;3.33;;
16906;SDS011;8570;52.380;4.654;2024-02-23T08:44:44;9.03;;;3.30;;
16906;SDS011;8570;52.380;4.654;2024-02-23T08:49:46;9.90;;;3.20;;
16906;SDS011;8570;52.380;4.654;2024-02-23T08:54:48;6.07;;;2.93;;
16906;SDS011;8570;52.380;4.654;2024-02-23T08:59:53;6.17;;;2.60;;
16906;SDS011;8570;52.380;4.654;2024-02-23T09:04:57;9.00;;;3.20;;
16906;SDS011;8570;52.380;4.654;2024-02-23T09:09:59;7.93;;;2.90;;
16906;SDS011;8570;52.380;4.654;2024-02-23T09:15:06;8.90;;;2.77;;
16906;SDS011;8570;52.380;4.654;2024-02-23T09:20:10;6.97;;;2.77;;
16906;SDS011;8570;52.380;4.654;2024-02-23T09:25:13;6.27;;;3.30;;
16906;SDS011;8570;52.380;4.654;2024-02-23T09:30:16;6.20;;;3.27;;
16906;SDS011;8570;52.380;4.654;2024-02-23T09:35:18;6.03;;;3.40;;
16906;SDS011;8570;52.380;4.654;2024-02-23T09:40:20;7.43;;;3.13;;
16906;SDS011;8570;52.380;4.654;2024-02-23T09:45:23;8.97;;;3.80;;
16906;SDS011;8570;52.380;4.654;2024-02-23T09:50:25;5.60;;;3.30;;
16906;SDS011;8570;52.380;4.654;2024-02-23T09:55:29;6.67;;;2.87;;
16906;SDS011;8570;52.380;4.654;2024-02-23T10:00:32;5.73;;;2.93;;
16906;SDS011;8570;52.380;4.654;2024-02-23T10:05:36;8.47;;;2.87;;
16906;SDS011;8570;52.380;4.654;2024-02-23T10:10:46;6.23;;;1.87;;
16906;SDS011;8570;52.380;4.654;2024-02-23T10:15:51;10.40;;;2.27;;
16906;SDS011;8570;52.380;4.654;2024-02-23T10:20:54;7.73;;;2.17;;
16906;SDS011;8570;52.380;4.654;2024-02-23T10:25:57;6.27;;;2.10;;
16906;SDS011;8570;52.380;4.654;2024-02-23T10:31:01;6.83;;;2.13;;
16906;SDS011;8570;52.380;4.654;2024-02-23T10:36:03;7.40;;;2.40;;
16906;SDS011;8570;52.380;4.654;2024-02-23T10:41:08;8.73;;;1.93;;
16906;SDS011;8570;52.380;4.654;2024-02-23T10:46:15;8.07;;;2.40;;
16906;SDS011;8570;52.380;4.654;2024-02-23T10:51:17;9.77;;;2.20;;
16906;SDS011;8570;52.380;4.654;2024-02-23T10:56:20;6.43;;;1.90;;
16906;SDS011;8570;52.380;4.654;2024-02-23T11:01:26;5.80;;;2.20;;
16906;SDS011;8570;52.380;4.654;2024-02-23T11:06:28;4.73;;;1.40;;
16906;SDS011;8570;52.380;4.654;2024-02-23T11:11:31;8.20;;;2.17;;
16906;SDS011;8570;52.380;4.654;2024-02-23T11:16:38;5.73;;;2.00;;
16906;SDS011;8570;52.380;4.654;2024-02-23T11:21:41;9.00;;;2.20;;
16906;SDS011;8570;52.380;4.654;2024-02-23T11:26:43;8.13;;;1.90;;
16906;SDS011;8570;52.380;4.654;2024-02-23T11:31:46;7.90;;;2.40;;
16906;SDS011;8570;52.380;4.654;2024-02-23T11:36:50;7.30;;;1.80;;
16906;SDS011;8570;52.380;4.654;2024-02-23T11:41:53;6.87;;;2.10;;
16906;SDS011;8570;52.380;4.654;2024-02-23T11:46:56;5.17;;;1.67;;
16906;SDS011;8570;52.380;4.654;2024-02-23T11:51:59;5.73;;;1.83;;
16906;SDS011;8570;52.380;4.654;2024-02-23T11:57:02;4.17;;;1.60;;
16906;SDS011;8570;52.380;4.654;2024-02-23T12:02:06;5.73;;;1.83;;
16906;SDS011;8570;52.380;4.654;2024-02-23T12:07:08;4.40;;;1.70;;
16906;SDS011;8570;52.380;4.654;2024-02-23T12:12:10;4.93;;;2.13;;
16906;SDS011;8570;52.380;4.654;2024-02-23T12:17:14;8.03;;;2.00;;
16906;SDS011;8570;52.380;4.654;2024-02-23T12:22:16;6.50;;;2.37;;
16906;SDS011;8570;52.380;4.654;2024-02-23T12:27:18;9.87;;;2.40;;
16906;SDS011;8570;52.380;4.654;2024-02-23T12:32:28;4.90;;;2.00;;
16906;SDS011;8570;52.380;4.654;2024-02-23T12:37:34;11.67;;;2.63;;
16906;SDS011;8570;52.380;4.654;2024-02-23T12:42:36;10.47;;;3.03;;
16906;SDS011;8570;52.380;4.654;2024-02-23T12:47:40;5.10;;;2.27;;
16906;SDS011;8570;52.380;4.654;2024-02-23T12:52:41;15.70;;;2.20;;
16906;SDS011;8570;52.380;4.654;2024-02-23T12:57:44;11.67;;;2.60;;
16906;SDS011;8570;52.380;4.654;2024-02-23T13:02:47;13.07;;;2.30;;
16906;SDS011;8570;52.380;4.654;2024-02-23T13:07:49;11.40;;;2.07;;
16906;SDS011;8570;52.380;4.654;2024-02-23T13:12:51;8.67;;;2.40;;
16906;SDS011;8570;52.380;4.654;2024-02-23T13:17:54;5.33;;;1.77;;
16906;SDS011;8570;52.380;4.654;2024-02-23T13:22:57;5.23;;;1.60;;
16906;SDS011;8570;52.380;4.654;2024-02-23T13:27:59;8.57;;;1.93;;
16906;SDS011;8570;52.380;4.654;2024-02-23T13:33:02;8.73;;;1.80;;
16906;SDS011;8570;52.380;4.654;2024-02-23T13:38:05;10.00;;;1.70;;
16906;SDS011;8570;52.380;4.654;2024-02-23T13:43:07;12.07;;;2.40;;
16906;SDS011;8570;52.380;4.654;2024-02-23T13:48:11;6.70;;;2.07;;
16906;SDS011;8570;52.380;4.654;2024-02-23T13:53:14;11.80;;;2.03;;
16906;SDS011;8570;52.380;4.654;2024-02-23T13:58:16;10.30;;;1.80;;
16906;SDS011;8570;52.380;4.654;2024-02-23T14:03:21;10.30;;;1.97;;
16906;SDS011;8570;52.380;4.654;2024-02-23T14:08:23;5.43;;;1.67;;
16906;SDS011;8570;52.380;4.654;2024-02-23T14:13:25;8.07;;;1.90;;
16906;SDS011;8570;52.380;4.654;2024-02-23T14:18:29;8.97;;;1.97;;
16906;SDS011;8570;52.380;4.654;2024-02-23T14:23:37;4.97;;;1.60;;
16906;SDS011;8570;52.380;4.654;2024-02-23T14:28:38;7.77;;;2.27;;
16906;SDS011;8570;52.380;4.654;2024-02-23T14:33:42;9.93;;;2.00;;
16906;SDS011;8570;52.380;4.654;2024-02-23T14:38:44;8.13;;;1.80;;
16906;SDS011;8570;52.380;4.654;2024-02-23T14:43:46;11.03;;;2.17;;
16906;SDS011;8570;52.380;4.654;2024-02-23T14:48:49;12.67;;;2.10;;
16906;SDS011;8570;52.380;4.654;2024-02-23T14:53:51;7.10;;;1.80;;
16906;SDS011;8570;52.380;4.654;2024-02-23T14:58:53;9.40;;;2.10;;
16906;SDS011;8570;52.380;4.654;2024-02-23T15:03:56;7.00;;;2.30;;
16906;SDS011;8570;52.380;4.654;2024-02-23T15:08:58;13.53;;;1.73;;
16906;SDS011;8570;52.380;4.654;2024-02-23T15:14:01;3.00;;;1.30;;
16906;SDS011;8570;52.380;4.654;2024-02-23T15:19:04;3.10;;;1.00;;
16906;SDS011;8570;52.380;4.654;2024-02-23T15:24:06;4.43;;;1.60;;
16906;SDS011;8570;52.380;4.654;2024-02-23T15:29:08;4.20;;;1.30;;
16906;SDS011;8570;52.380;4.654;2024-02-23T15:34:11;2.07;;;1.07;;
16906;SDS011;8570;52.380;4.654;2024-02-23T15:39:14;3.87;;;1.30;;
16906;SDS011;8570;52.380;4.654;2024-02-23T15:44:15;4.50;;;1.30;;
16906;SDS011;8570;52.380;4.654;2024-02-23T15:49:19;2.17;;;1.00;;
16906;SDS011;8570;52.380;4.654;2024-02-23T15:54:23;2.47;;;1.03;;
16906;SDS011;8570;52.380;4.654;2024-02-23T15:59:27;2.73;;;1.30;;
16906;SDS011;8570;52.380;4.654;2024-02-23T16:04:32;3.43;;;1.10;;
16906;SDS011;8570;52.380;4.654;2024-02-23T16:09:34;3.83;;;1.77;;
16906;SDS011;8570;52.380;4.654;2024-02-23T16:14:36;3.40;;;1.30;;
16906;SDS011;8570;52.380;4.654;2024-02-23T16:19:39;4.83;;;1.37;;
16906;SDS011;8570;52.380;4.654;2024-02-23T16:24:41;3.50;;;1.30;;
16906;SDS011;8570;52.380;4.654;2024-02-23T16:29:45;3.77;;;1.43;;
16906;SDS011;8570;52.380;4.654;2024-02-23T16:34:48;3.37;;;1.40;;
16906;SDS011;8570;52.380;4.654;2024-02-23T16:39:50;5.20;;;1.83;;
16906;SDS011;8570;52.380;4.654;2024-02-23T16:44:52;3.60;;;2.00;;
16906;SDS011;8570;52.380;4.654;2024-02-23T16:49:55;2.57;;;1.67;;
16906;SDS011;8570;52.380;4.654;2024-02-23T16:54:57;3.27;;;1.83;;
16906;SDS011;8570;52.380;4.654;2024-02-23T17:00:00;4.87;;;1.80;;
16906;SDS011;8570;52.380;4.654;2024-02-23T17:05:03;3.03;;;1.50;;
16906;SDS011;8570;52.380;4.654;2024-02-23T17:10:06;3.70;;;1.77;;
16906;SDS011;8570;52.380;4.654;2024-02-23T17:15:09;3.23;;;1.47;;
16906;SDS011;8570;52.380;4.654;2024-02-23T17:20:12;2.10;;;1.50;;
16906;SDS011;8570;52.380;4.654;2024-02-23T17:25:14;5.27;;;1.70;;
16906;SDS011;8570;52.380;4.654;2024-02-23T17:30:17;5.30;;;1.90;;
16906;SDS011;8570;52.380;4.654;2024-02-23T17:35:21;5.10;;;1.80;;
16906;SDS011;8570;52.380;4.654;2024-02-23T17:40:23;4.37;;;1.77;;
16906;SDS011;8570;52.380;4.654;2024-02-23T17:45:25;2.43;;;1.50;;
16906;SDS011;8570;52.380;4.654;2024-02-23T17:50:28;3.53;;;1.47;;
16906;SDS011;8570;52.380;4.654;2024-02-23T17:55:32;3.07;;;1.80;;
16906;SDS011;8570;52.380;4.654;2024-02-23T18:00:34;2.07;;;1.50;;
16906;SDS011;8570;52.380;4.654;2024-02-23T18:05:37;6.17;;;1.47;;
16906;SDS011;8570;52.380;4.654;2024-02-23T18:10:39;4.27;;;1.60;;
16906;SDS011;8570;52.380;4.654;2024-02-23T18:15:41;3.83;;;1.40;;
16906;SDS011;8570;52.380;4.654;2024-02-23T18:20:44;4.30;;;1.87;;
16906;SDS011;8570;52.380;4.654;2024-02-23T18:25:46;2.57;;;2.10;;
16906;SDS011;8570;52.380;4.654;2024-02-23T18:30:48;4.87;;;1.70;;
16906;SDS011;8570;52.380;4.654;2024-02-23T18:35:52;2.13;;;1.23;;
16906;SDS011;8570;52.380;4.654;2024-02-23T18:40:54;1.37;;;1.27;;
16906;SDS011;8570;52.380;4.654;2024-02-23T18:45:58;4.50;;;2.03;;
16906;SDS011;8570;52.380;4.654;2024-02-23T18:51:01;3.80;;;1.90;;
16906;SDS011;8570;52.380;4.654;2024-02-23T18:56:03;3.43;;;1.90;;
16906;SDS011;8570;52.380;4.654;2024-02-23T19:01:08;4.27;;;2.63;;
16906;SDS011;8570;52.380;4.654;2024-02-23T19:06:12;3.00;;;2.17;;
16906;SDS011;8570;52.380;4.654;2024-02-23T19:11:14;4.37;;;2.07;;
16906;SDS011;8570;52.380;4.654;2024-02-23T19:16:16;2.47;;;1.93;;
16906;SDS011;8570;52.380;4.654;2024-02-23T19:21:20;4.70;;;2.00;;
16906;SDS011;8570;52.380;4.654;2024-02-23T19:26:22;3.87;;;2.30;;
16906;SDS011;8570;52.380;4.654;2024-02-23T19:31:24;6.33;;;2.93;;
16906;SDS011;8570;52.380;4.654;2024-02-23T19:36:28;4.43;;;2.60;;
16906;SDS011;8570;52.380;4.654;2024-02-23T19:41:29;3.47;;;2.43;;
16906;SDS011;8570;52.380;4.654;2024-02-23T19:46:32;3.60;;;2.40;;
16906;SDS011;8570;52.380;4.654;2024-02-23T19:51:35;4.07;;;2.50;;
16906;SDS011;8570;52.380;4.654;2024-02-23T19:56:37;6.07;;;2.40;;
16906;SDS011;8570;52.380;4.654;2024-02-23T20:01:39;4.87;;;2.47;;
16906;SDS011;8570;52.380;4.654;2024-02-23T20:06:42;3.83;;;3.23;;
16906;SDS011;8570;52.380;4.654;2024-02-23T20:11:45;5.97;;;2.97;;
16906;SDS011;8570;52.380;4.654;2024-02-23T20:16:47;5.00;;;2.80;;
16906;SDS011;8570;52.380;4.654;2024-02-23T20:21:56;6.03;;;3.20;;
16906;SDS011;8570;52.380;4.654;2024-02-23T20:26:58;3.83;;;2.80;;
16906;SDS011;8570;52.380;4.654;2024-02-23T20:32:01;5.13;;;2.90;;
16906;SDS011;8570;52.380;4.654;2024-02-23T20:37:06;6.10;;;2.80;;
16906;SDS011;8570;52.380;4.654;2024-02-23T20:42:08;4.33;;;2.70;;
16906;SDS011;8570;52.380;4.654;2024-02-23T20:47:10;3.37;;;2.30;;
16906;SDS011;8570;52.380;4.654;2024-02-23T20:52:13;3.20;;;1.73;;
16906;SDS011;8570;52.380;4.654;2024-02-23T20:57:18;2.77;;;1.43;;
16906;SDS011;8570;52.380;4.654;2024-02-23T21:02:20;2.73;;;1.27;;
16906;SDS011;8570;52.380;4.654;2024-02-23T21:07:23;2.77;;;1.40;;
16906;SDS011;8570;52.380;4.654;2024-02-23T21:12:25;3.63;;;1.53;;
16906;SDS011;8570;52.380;4.654;2024-02-23T21:17:27;3.93;;;1.23;;
16906;SDS011;8570;52.380;4.654;2024-02-23T21:22:30;1.60;;;1.50;;
16906;SDS011;8570;52.380;4.654;2024-02-23T21:27:32;2.83;;;2.00;;
16906;SDS011;8570;52.380;4.654;2024-02-23T21:32:34;2.13;;;1.60;;
16906;SDS011;8570;52.380;4.654;2024-02-23T21:37:37;3.07;;;2.23;;
16906;SDS011;8570;52.380;4.654;2024-02-23T21:42:40;3.40;;;2.10;;
16906;SDS011;8570;52.380;4.654;2024-02-23T21:47:45;4.57;;;2.20;;
16906;SDS011;8570;52.380;4.654;2024-02-23T21:52:48;3.27;;;2.40;;
16906;SDS011;8570;52.380;4.654;2024-02-23T21:57:50;2.33;;;2.07;;
16906;SDS011;8570;52.380;4.654;2024-02-23T22:02:52;4.07;;;3.07;;
16906;SDS011;8570;52.380;4.654;2024-02-23T22:07:55;4.10;;;2.20;;
16906;SDS011;8570;52.380;4.654;2024-02-23T22:12:57;4.57;;;2.70;;
16906;SDS011;8570;52.380;4.654;2024-02-23T22:18:00;3.97;;;3.33;;
16906;SDS011;8570;52.380;4.654;2024-02-23T22:23:03;5.93;;;3.53;;
16906;SDS011;8570;52.380;4.654;2024-02-23T22:28:05;4.53;;;3.70;;
16906;SDS011;8570;52.380;4.654;2024-02-23T22:33:07;5.27;;;4.57;;
16906;SDS011;8570;52.380;4.654;2024-02-23T22:38:10;5.87;;;4.33;;
16906;SDS011;8570;52.380;4.654;2024-02-23T22:43:12;5.50;;;4.40;;
16906;SDS011;8570;52.380;4.654;2024-02-23T22:48:14;5.07;;;4.57;;
16906;SDS011;8570;52.380;4.654;2024-02-23T22:53:17;5.93;;;4.53;;
16906;SDS011;8570;52.380;4.654;2024-02-23T22:58:19;6.67;;;4.60;;
16906;SDS011;8570;52.380;4.654;2024-02-23T23:03:21;4.93;;;4.33;;
16906;SDS011;8570;52.380;4.654;2024-02-23T23:08:24;5.90;;;5.10;;
16906;SDS011;8570;52.380;4.654;2024-02-23T23:13:27;5.87;;;4.70;;
16906;SDS011;8570;52.380;4.654;2024-02-23T23:18:28;5.30;;;4.67;;
16906;SDS011;8570;52.380;4.654;2024-02-23T23:23:32;8.33;;;5.30;;
16906;SDS011;8570;52.380;4.654;2024-02-23T23:28:34;5.63;;;5.00;;
16906;SDS011;8570;52.380;4.654;2024-02-23T23:33:35;7.00;;;5.30;;
16906;SDS011;8570;52.380;4.654;2024-02-23T23:38:39;5.90;;;4.90;;
16906;SDS011;8570;52.380;4.654;2024-02-23T23:43:41;8.00;;;5.10;;
16906;SDS011;8570;52.380;4.654;2024-02-23T23:48:44;6.87;;;5.40;;
16906;SDS011;8570;52.380;4.654;2024-02-23T23:53:48;5.93;;;4.77;;
16906;SDS011;8570;52.380;4.654;2024-02-23T23:58:55;7.50;;;6.13;;
